Terminal Aerodrome Forecast
Issued by NWS Mt. Holly, NJ

Home | Current Version | Previous Version | Text Only | Print | Product List | Glossary On
Versions: 1 2 3 4 5 6 7 8 9 10 11 12 13 14 15 16 17 18
054
FTUS41 KPHI 271142
TAFRDG
TAF
KRDG 271142Z 2712/2812 VRB03KT P6SM BKN250
     FM271500 VRB03KT P6SM SCT050
     FM271800 25005KT P6SM SCT050
     FM280100 VRB03KT P6SM BKN250=

USA.gov is the U.S. government's official web portal to all federal, state and local government web resources and services.